Time;durP1;ratioP1;P1;durP2;ratioP2;P2;SDS_P1;SDS_P2;PMS_P1;PMS_P2;Temp;Humidity;BMP_temperature;BMP_pressure;BME280_temperature;BME280_humidity;BME280_pressure;Samples;Min_cycle;Max_cycle;Signal;HPM_P1;HPM_P2
2023/04/05 00:01:36;;;;;;;5.53;4.22;;;-1.70;99.90;;;;;;5026423;28;20044;-40
2023/04/05 00:04:03;;;;;;;6.03;4.95;;;-1.70;99.90;;;;;;5021493;28;20057;-40
2023/04/05 00:06:30;;;;;;;4.18;3.85;;;-1.60;99.90;;;;;;5016547;28;20044;-40
2023/04/05 00:09:00;;;;;;;7.55;4.63;;;-1.70;99.90;;;;;;5015931;28;20048;-39
2023/04/05 00:11:31;;;;;;;7.43;4.90;;;-1.60;99.90;;;;;;5022832;28;20120;-39
2023/04/05 00:13:59;;;;;;;5.80;4.55;;;-1.70;99.90;;;;;;5022861;28;20487;-39
2023/04/05 00:16:26;;;;;;;4.82;4.53;;;-1.70;99.90;;;;;;5028847;28;20046;-39
2023/04/05 00:18:52;;;;;;;4.38;3.70;;;-1.70;99.90;;;;;;5029756;28;20031;-39
2023/04/05 00:21:22;;;;;;;7.07;5.18;;;-1.70;99.90;;;;;;5022345;28;20070;-39
2023/04/05 00:23:53;;;;;;;4.93;3.88;;;-1.70;99.90;;;;;;5019841;28;20028;-39
2023/04/05 00:26:19;;;;;;;4.93;3.65;;;-1.70;99.90;;;;;;5021184;28;20037;-39
2023/04/05 00:28:46;;;;;;;4.00;3.63;;;-1.80;99.90;;;;;;5015301;28;20029;-40
2023/04/05 00:31:12;;;;;;;7.22;4.13;;;-1.80;99.90;;;;;;5022257;28;20536;-39
2023/04/05 00:33:37;;;;;;;3.97;3.58;;;-1.70;99.90;;;;;;5020770;28;20025;-39
2023/04/05 00:36:14;;;;;;;5.28;4.45;;;-1.80;99.90;;;;;;5024277;28;20043;-40
2023/04/05 00:38:40;;;;;;;6.03;3.95;;;-1.80;99.90;;;;;;5026517;28;20026;-40
2023/04/05 00:41:07;;;;;;;4.18;3.58;;;-1.70;99.90;;;;;;5021646;28;20037;-40
2023/04/05 00:43:32;;;;;;;5.70;4.75;;;-1.70;99.90;;;;;;5020038;28;20179;-40
2023/04/05 00:45:59;;;;;;;4.95;4.32;;;-1.70;99.90;;;;;;5021243;28;20057;-40
2023/04/05 00:48:24;;;;;;;5.55;4.88;;;-1.60;99.90;;;;;;5024554;28;20021;-40
2023/04/05 00:50:51;;;;;;;5.65;5.07;;;-1.60;99.90;;;;;;5024149;28;20044;-40
2023/04/05 00:53:20;;;;;;;8.02;4.18;;;-1.60;99.90;;;;;;5021526;28;20026;-40
2023/04/05 00:55:47;;;;;;;4.55;4.00;;;-1.60;99.90;;;;;;5021498;28;20032;-40
2023/04/05 00:58:16;;;;;;;4.28;3.90;;;-1.60;99.90;;;;;;5029549;28;20025;-40
2023/04/05 01:00:53;;;;;;;4.43;3.70;;;-1.50;99.90;;;;;;5025379;28;20040;-31
2023/04/05 01:03:25;;;;;;;5.90;4.05;;;-1.50;99.90;;;;;;5026171;28;20044;-29
2023/04/05 01:05:58;;;;;;;5.40;4.13;;;-1.60;99.90;;;;;;5027393;28;20018;-30
2023/04/05 01:08:54;;;;;;;6.45;4.20;;;-1.60;99.90;;;;;;5022470;28;20538;-30
2023/04/05 01:11:22;;;;;;;5.85;4.60;;;-1.60;99.90;;;;;;5027985;28;20918;-30
2023/04/05 01:13:48;;;;;;;8.38;4.50;;;-1.50;99.90;;;;;;5022606;28;20037;-30
2023/04/05 01:16:13;;;;;;;6.78;3.53;;;-1.60;99.90;;;;;;5021732;28;20022;-30
2023/04/05 01:18:40;;;;;;;5.70;3.55;;;-1.60;99.90;;;;;;5024825;28;20075;-30
2023/04/05 01:21:32;;;;;;;7.22;3.65;;;-1.60;99.90;;;;;;5022990;28;20113;-30
2023/04/05 01:24:21;;;;;;;8.23;4.25;;;-1.60;99.90;;;;;;5024877;28;20179;-30
2023/04/05 01:27:08;;;;;;;4.88;3.72;;;-1.60;99.90;;;;;;5023387;28;20402;-30
2023/04/05 01:29:40;;;;;;;5.10;3.40;;;-1.60;99.90;;;;;;5027798;28;20486;-30
2023/04/05 01:32:24;;;;;;;7.10;4.22;;;-1.60;99.90;;;;;;5027030;28;20033;-30
2023/04/05 01:35:13;;;;;;;3.72;3.42;;;-1.60;99.90;;;;;;5023709;28;20528;-29
2023/04/05 01:37:39;;;;;;;3.92;3.63;;;-1.60;99.90;;;;;;5019259;28;20037;-30
2023/04/05 01:40:07;;;;;;;10.15;3.50;;;-1.60;99.90;;;;;;5026881;28;20139;-30
2023/04/05 01:42:33;;;;;;;5.18;3.85;;;-1.70;99.90;;;;;;5022773;28;20108;-30
2023/04/05 01:44:58;;;;;;;4.55;4.00;;;-1.70;99.90;;;;;;5028054;28;20124;-30
2023/04/05 01:47:24;;;;;;;4.05;3.80;;;-1.70;99.90;;;;;;5030187;28;20380;-30
2023/04/05 01:49:49;;;;;;;4.25;3.90;;;-1.80;99.90;;;;;;5022141;28;20029;-30
2023/04/05 01:52:15;;;;;;;4.18;3.88;;;-1.70;99.90;;;;;;5030698;28;20444;-30
2023/04/05 01:54:40;;;;;;;5.22;4.05;;;-1.80;99.90;;;;;;5028333;28;20132;-29
2023/04/05 01:57:06;;;;;;;8.65;3.97;;;-1.80;99.90;;;;;;5026044;28;20513;-30
2023/04/05 01:59:32;;;;;;;6.68;4.63;;;-1.80;99.90;;;;;;5026621;28;20064;-30
2023/04/05 02:01:57;;;;;;;5.00;3.35;;;-1.80;99.90;;;;;;5028278;28;20041;-30
2023/04/05 02:04:23;;;;;;;4.20;3.63;;;-1.90;99.90;;;;;;5025095;28;20156;-30
2023/04/05 02:06:49;;;;;;;6.35;4.38;;;-1.90;99.90;;;;;;5029509;28;20037;-29
2023/04/05 02:09:14;;;;;;;4.85;4.50;;;-2.00;99.90;;;;;;5036698;28;20489;-29
2023/04/05 02:11:40;;;;;;;4.30;3.90;;;-2.00;99.90;;;;;;5033973;28;20060;-30
2023/04/05 02:14:06;;;;;;;4.38;3.97;;;-2.00;99.90;;;;;;5021476;28;20030;-30
2023/04/05 02:16:32;;;;;;;9.48;4.70;;;-2.10;99.90;;;;;;5033028;28;20029;-29
2023/04/05 02:18:58;;;;;;;5.18;3.88;;;-2.10;99.90;;;;;;5024618;28;20367;-30
2023/04/05 02:21:28;;;;;;;5.38;3.88;;;-2.10;99.90;;;;;;5026658;28;20398;-29
2023/04/05 02:23:54;;;;;;;5.53;4.75;;;-2.10;99.90;;;;;;5022083;28;20952;-30
2023/04/05 02:26:20;;;;;;;5.18;3.78;;;-2.20;99.90;;;;;;5028271;28;20055;-30
2023/04/05 02:28:46;;;;;;;4.18;3.78;;;-2.20;99.90;;;;;;5027448;28;20104;-30
2023/04/05 02:31:12;;;;;;;3.33;3.10;;;-2.20;99.90;;;;;;5020429;28;20033;-30
2023/04/05 02:33:39;;;;;;;4.13;3.65;;;-2.20;99.90;;;;;;5030937;28;20025;-29
2023/04/05 02:36:05;;;;;;;4.60;3.58;;;-2.20;99.90;;;;;;5028688;28;20021;-30
2023/04/05 02:38:35;;;;;;;5.68;4.43;;;-2.30;99.90;;;;;;5022815;28;20026;-29
2023/04/05 02:41:01;;;;;;;7.03;3.42;;;-2.30;99.90;;;;;;5026421;28;20057;-29
2023/04/05 02:43:27;;;;;;;3.72;3.42;;;-2.30;99.90;;;;;;5028060;28;20454;-29
2023/04/05 02:45:53;;;;;;;6.18;4.57;;;-2.30;99.90;;;;;;5026709;28;20112;-29
2023/04/05 02:48:18;;;;;;;6.80;5.05;;;-2.30;99.90;;;;;;5042217;28;20029;-30
2023/04/05 02:50:51;;;;;;;5.05;4.63;;;-2.30;99.90;;;;;;5029418;28;20071;-29
2023/04/05 02:53:17;;;;;;;5.20;4.70;;;-2.30;99.90;;;;;;5026274;28;20099;-31
2023/04/05 02:55:53;;;;;;;10.32;5.32;;;-2.30;99.90;;;;;;5032316;28;20501;-30
2023/04/05 02:58:18;;;;;;;7.03;5.45;;;-2.30;99.90;;;;;;5029884;28;20063;-30
2023/04/05 03:00:50;;;;;;;6.07;5.28;;;-2.30;99.90;;;;;;5020874;28;20643;-30
2023/04/05 03:03:20;;;;;;;6.57;4.70;;;-2.30;99.90;;;;;;5024178;28;20481;-30
2023/04/05 03:05:47;;;;;;;4.90;4.20;;;-2.30;99.90;;;;;;5024273;28;20026;-30
2023/04/05 03:08:22;;;;;;;4.35;4.05;;;-2.30;99.90;;;;;;5030316;28;20500;-30
2023/04/05 03:10:50;;;;;;;5.43;4.22;;;-2.40;99.90;;;;;;5025313;28;21982;-29
2023/04/05 03:13:16;;;;;;;5.10;4.45;;;-2.40;99.90;;;;;;5022017;28;20399;-29
2023/04/05 03:15:42;;;;;;;5.60;4.25;;;-2.40;99.90;;;;;;5020805;28;20040;-30
2023/04/05 03:18:08;;;;;;;8.02;5.10;;;-2.40;99.90;;;;;;5027321;28;20402;-30
2023/04/05 03:20:44;;;;;;;4.60;4.20;;;-2.40;99.90;;;;;;5028156;28;20033;-31
2023/04/05 03:23:10;;;;;;;6.55;3.88;;;-2.50;99.90;;;;;;5028874;28;20092;-31
2023/04/05 03:25:36;;;;;;;6.55;5.68;;;-2.50;99.90;;;;;;5018221;28;20113;-30
2023/04/05 03:28:05;;;;;;;8.05;5.32;;;-2.40;99.90;;;;;;5024300;28;20029;-30
2023/04/05 03:30:34;;;;;;;10.57;5.68;;;-2.40;99.90;;;;;;5027044;28;20029;-30
2023/04/05 03:33:00;;;;;;;6.90;3.85;;;-2.50;99.90;;;;;;5045179;28;20513;-30
2023/04/05 03:35:28;;;;;;;4.30;3.90;;;-2.50;99.90;;;;;;5049019;28;20017;-31
2023/04/05 03:37:54;;;;;;;7.95;4.80;;;-2.40;99.90;;;;;;5044765;28;20033;-31
2023/04/05 03:40:20;;;;;;;6.03;4.78;;;-2.40;99.90;;;;;;5047894;28;20044;-30
2023/04/05 03:42:45;;;;;;;4.32;3.80;;;-2.40;99.90;;;;;;5047453;28;20029;-30
2023/04/05 03:45:11;;;;;;;6.38;4.55;;;-2.40;99.90;;;;;;5048452;28;20715;-30
2023/04/05 03:47:37;;;;;;;8.48;4.47;;;-2.50;99.90;;;;;;5043574;28;20029;-30
2023/04/05 03:50:03;;;;;;;5.45;4.90;;;-2.60;99.90;;;;;;5046965;28;20158;-30
2023/04/05 03:52:29;;;;;;;3.75;3.40;;;-2.60;99.90;;;;;;5046903;28;20040;-30
2023/04/05 03:54:54;;;;;;;5.10;4.05;;;-2.60;99.90;;;;;;5046637;28;20025;-30
2023/04/05 03:57:20;;;;;;;7.15;6.38;;;-2.60;99.90;;;;;;5046358;28;20128;-31
2023/04/05 03:59:46;;;;;;;5.97;4.53;;;-2.60;99.90;;;;;;5045265;28;20032;-30
2023/04/05 04:02:11;;;;;;;10.43;5.75;;;-2.70;99.90;;;;;;5046370;28;20494;-30
2023/04/05 04:04:37;;;;;;;5.43;4.50;;;-2.70;99.90;;;;;;5051308;28;20103;-30
2023/04/05 04:07:02;;;;;;;4.78;4.38;;;-2.80;99.90;;;;;;5043936;28;20060;-31
2023/04/05 04:09:28;;;;;;;6.30;4.82;;;-2.80;99.90;;;;;;5048656;28;20658;-31
2023/04/05 04:11:55;;;;;;;6.03;4.47;;;-2.90;99.90;;;;;;5040464;28;20517;-30
2023/04/05 04:14:22;;;;;;;9.18;5.35;;;-3.00;99.90;;;;;;5040080;28;20104;-30
2023/04/05 04:16:48;;;;;;;5.00;4.13;;;-3.00;99.90;;;;;;5046012;28;20028;-30
2023/04/05 04:19:15;;;;;;;5.88;3.80;;;-2.90;99.90;;;;;;5042276;28;20022;-31
2023/04/05 04:21:50;;;;;;;4.47;4.07;;;-2.90;99.90;;;;;;5058484;28;20033;-30
2023/04/05 04:24:17;;;;;;;5.13;4.25;;;-2.80;99.90;;;;;;5046476;28;20036;-30
2023/04/05 04:26:47;;;;;;;3.80;3.60;;;-2.90;99.90;;;;;;5043792;28;20079;-30
2023/04/05 04:29:15;;;;;;;8.77;4.13;;;-3.00;99.90;;;;;;5043160;28;20446;-30
2023/04/05 04:31:44;;;;;;;8.43;4.47;;;-2.90;99.90;;;;;;5042301;28;20041;-30
2023/04/05 04:34:12;;;;;;;6.55;5.10;;;-2.90;99.90;;;;;;5043505;28;20027;-31
2023/04/05 04:36:41;;;;;;;4.05;3.72;;;-3.00;99.90;;;;;;5041036;28;20029;-30
2023/04/05 04:39:09;;;;;;;8.52;6.22;;;-3.20;99.90;;;;;;5046388;28;20025;-30
2023/04/05 04:41:37;;;;;;;7.05;5.78;;;-3.30;99.90;;;;;;5037849;28;20040;-31
2023/04/05 04:44:03;;;;;;;9.38;6.18;;;-3.20;99.90;;;;;;5046761;28;20032;-30
2023/04/05 04:46:33;;;;;;;5.75;4.38;;;-3.20;99.90;;;;;;5048978;28;20054;-30
2023/04/05 04:49:04;;;;;;;2.88;2.65;;;-3.10;99.90;;;;;;5045025;28;20036;-31
2023/04/05 04:51:31;;;;;;;3.78;3.47;;;-3.00;99.90;;;;;;5045057;28;20099;-30
2023/04/05 04:53:56;;;;;;;5.13;3.75;;;-3.10;99.90;;;;;;5044743;28;20029;-30
2023/04/05 04:56:22;;;;;;;4.47;3.47;;;-3.20;99.90;;;;;;5045097;28;20047;-30
2023/04/05 04:58:48;;;;;;;6.68;4.70;;;-3.30;99.90;;;;;;5040712;28;20104;-32
2023/04/05 05:01:13;;;;;;;6.57;4.78;;;-3.30;99.90;;;;;;5048512;28;20037;-30
2023/04/05 05:03:39;;;;;;;4.15;3.70;;;-3.40;99.90;;;;;;5047655;28;20477;-30
2023/04/05 05:06:05;;;;;;;4.80;4.35;;;-3.40;99.90;;;;;;5042862;28;20036;-30
2023/04/05 05:08:31;;;;;;;5.18;3.97;;;-3.40;99.90;;;;;;5045111;28;20464;-30
2023/04/05 05:10:56;;;;;;;6.13;4.53;;;-3.40;99.90;;;;;;5049538;28;20189;-30
2023/04/05 05:13:22;;;;;;;8.18;5.22;;;-3.40;99.90;;;;;;5049692;28;20021;-30
2023/04/05 05:15:47;;;;;;;8.25;5.80;;;-3.40;99.90;;;;;;5050737;28;20052;-30
2023/04/05 05:18:13;;;;;;;7.55;6.13;;;-3.30;99.90;;;;;;5048218;28;20033;-31
2023/04/05 05:20:40;;;;;;;6.90;5.00;;;-3.30;99.90;;;;;;5043436;28;20424;-30
2023/04/05 05:23:06;;;;;;;6.20;4.80;;;-3.30;99.90;;;;;;5047911;28;20409;-30
2023/04/05 05:25:31;;;;;;;4.30;3.78;;;-3.30;99.90;;;;;;5041473;28;20036;-31
2023/04/05 05:27:57;;;;;;;4.78;3.80;;;-3.30;99.90;;;;;;5041427;28;20061;-30
2023/04/05 05:30:23;;;;;;;4.50;3.90;;;-3.20;99.90;;;;;;5042588;28;20058;-30
2023/04/05 05:32:48;;;;;;;7.03;5.47;;;-3.20;99.90;;;;;;5032539;28;20052;-30
2023/04/05 05:35:14;;;;;;;5.22;4.72;;;-3.20;99.90;;;;;;5036330;28;20386;-30
2023/04/05 05:37:40;;;;;;;8.18;5.32;;;-3.20;99.90;;;;;;5043945;28;20108;-31
2023/04/05 05:40:06;;;;;;;5.43;4.93;;;-3.20;99.90;;;;;;5040928;28;20053;-30
2023/04/05 05:42:32;;;;;;;5.90;4.90;;;-3.10;99.90;;;;;;5048120;28;20081;-31
2023/04/05 05:45:03;;;;;;;10.30;6.60;;;-3.10;99.90;;;;;;5034402;28;20136;-30
2023/04/05 05:47:29;;;;;;;7.05;5.68;;;-3.10;99.90;;;;;;5044995;28;20032;-30
2023/04/05 05:49:55;;;;;;;9.00;5.88;;;-3.10;99.90;;;;;;5037886;28;20057;-30
2023/04/05 05:52:21;;;;;;;8.38;5.60;;;-3.00;99.90;;;;;;5044806;28;20025;-30
2023/04/05 05:54:46;;;;;;;5.20;4.43;;;-2.90;99.90;;;;;;5045349;28;20025;-30
2023/04/05 05:57:12;;;;;;;6.03;5.30;;;-2.80;99.90;;;;;;5051083;28;20028;-31
2023/04/05 05:59:38;;;;;;;5.85;4.95;;;-2.70;99.90;;;;;;5064667;28;20413;-29
2023/04/05 06:02:03;;;;;;;6.32;4.82;;;-2.60;99.90;;;;;;5045594;28;20045;-30
2023/04/05 06:04:29;;;;;;;7.28;5.18;;;-2.60;99.90;;;;;;5037329;28;20044;-30
2023/04/05 06:06:56;;;;;;;5.10;4.60;;;-2.50;99.90;;;;;;5042677;28;20066;-30
2023/04/05 06:09:22;;;;;;;8.63;5.93;;;-2.40;99.90;;;;;;5043443;28;20414;-30
2023/04/05 06:11:51;;;;;;;11.02;4.75;;;-2.30;99.90;;;;;;5025481;28;20036;-30
2023/04/05 06:14:16;;;;;;;8.32;7.38;;;-2.10;99.90;;;;;;5041251;28;20379;-30
2023/04/05 06:16:42;;;;;;;10.32;6.53;;;-1.90;99.90;;;;;;5043791;28;20034;-30
2023/04/05 06:19:07;;;;;;;10.15;6.35;;;-1.80;99.90;;;;;;5048605;28;20033;-31
2023/04/05 06:21:33;;;;;;;7.93;6.18;;;-1.70;99.90;;;;;;5048390;28;20024;-30
2023/04/05 06:23:59;;;;;;;11.52;6.72;;;-1.50;99.90;;;;;;5044425;28;20087;-30
2023/04/05 06:26:28;;;;;;;8.48;6.53;;;-1.50;99.90;;;;;;5041658;28;20120;-30
2023/04/05 06:28:55;;;;;;;11.45;7.00;;;-1.40;99.90;;;;;;5041787;28;20032;-30
2023/04/05 06:31:26;;;;;;;13.20;6.78;;;-1.20;99.90;;;;;;5041683;28;20041;-30
2023/04/05 06:33:51;;;;;;;11.38;7.43;;;-1.10;99.90;;;;;;5039009;28;20037;-30
2023/04/05 06:36:17;;;;;;;7.03;6.28;;;-1.00;99.90;;;;;;5047285;28;20090;-30
2023/04/05 06:38:43;;;;;;;10.48;6.85;;;-0.90;99.90;;;;;;5060757;28;20028;-30
2023/04/05 06:41:09;;;;;;;10.05;6.28;;;-0.80;99.90;;;;;;5049234;28;20429;-30
2023/04/05 06:43:34;;;;;;;12.15;6.80;;;-0.70;99.90;;;;;;5051992;28;20079;-31
2023/04/05 06:46:00;;;;;;;12.15;7.53;;;-0.60;99.90;;;;;;5047600;28;20028;-30
2023/04/05 06:48:28;;;;;;;8.38;7.00;;;-0.50;99.90;;;;;;5076546;28;20029;-31
2023/04/05 06:51:00;;;;;;;11.20;8.43;;;-0.30;99.90;;;;;;5042905;28;20076;-30
2023/04/05 06:53:27;;;;;;;19.48;7.10;;;-0.10;99.90;;;;;;5050240;28;20070;-30
2023/04/05 06:55:55;;;;;;;13.73;8.05;;;0.00;99.90;;;;;;5046437;28;20065;-29
2023/04/05 06:58:22;;;;;;;8.27;5.43;;;0.10;99.90;;;;;;5038212;28;20044;-30
2023/04/05 07:00:51;;;;;;;8.98;6.40;;;0.20;99.90;;;;;;5045400;28;20094;-30
2023/04/05 07:03:17;;;;;;;8.57;5.28;;;0.30;99.90;;;;;;5048422;28;20060;-30
2023/04/05 07:05:51;;;;;;;6.13;4.93;;;0.50;99.90;;;;;;5044861;28;20086;-30
2023/04/05 07:08:18;;;;;;;8.38;5.75;;;0.80;99.90;;;;;;5065211;28;20446;-30
2023/04/05 07:10:44;;;;;;;10.95;5.88;;;0.80;99.90;;;;;;5043620;28;20559;-30
2023/04/05 07:13:10;;;;;;;7.72;5.63;;;0.90;99.90;;;;;;5039029;28;20044;-30
2023/04/05 07:15:35;;;;;;;7.13;5.10;;;0.90;99.90;;;;;;5044379;28;20395;-31
2023/04/05 07:18:01;;;;;;;7.05;5.20;;;1.10;99.90;;;;;;5046515;28;20436;-30
2023/04/05 07:20:27;;;;;;;7.25;4.30;;;1.20;99.90;;;;;;5042468;28;20043;-30
2023/04/05 07:22:52;;;;;;;6.55;5.35;;;1.30;99.90;;;;;;5050234;28;20028;-30
2023/04/05 07:25:18;;;;;;;10.02;6.10;;;1.40;99.90;;;;;;5047947;28;20043;-30
2023/04/05 07:27:43;;;;;;;6.40;5.22;;;1.50;99.90;;;;;;5045979;28;20100;-30
2023/04/05 07:30:09;;;;;;;6.50;5.05;;;1.50;99.90;;;;;;5048981;28;20466;-31
2023/04/05 07:32:35;;;;;;;5.18;4.43;;;1.60;99.90;;;;;;5047562;28;20029;-30
2023/04/05 07:35:02;;;;;;;9.80;6.50;;;1.80;99.90;;;;;;5043475;28;20474;-30
2023/04/05 07:37:27;;;;;;;5.47;5.03;;;1.90;99.90;;;;;;5045362;28;20107;-31
2023/04/05 07:39:53;;;;;;;8.98;6.15;;;2.00;99.90;;;;;;5046082;28;20104;-30
2023/04/05 07:42:20;;;;;;;8.38;5.55;;;2.10;99.90;;;;;;5057633;28;20036;-30
2023/04/05 07:44:46;;;;;;;9.20;5.53;;;2.10;99.90;;;;;;5067045;28;20033;-30
2023/04/05 07:47:11;;;;;;;8.43;5.22;;;2.10;99.90;;;;;;5043157;28;20032;-30
2023/04/05 07:49:37;;;;;;;7.72;4.95;;;2.20;99.90;;;;;;5042235;28;20025;-30
2023/04/05 07:52:03;;;;;;;7.00;5.85;;;2.10;99.90;;;;;;5047208;28;20539;-31
2023/04/05 07:54:32;;;;;;;10.10;5.53;;;2.30;99.90;;;;;;5049006;28;20394;-31
2023/04/05 07:56:59;;;;;;;5.88;5.00;;;2.30;99.90;;;;;;5050226;28;20489;-30
2023/04/05 07:59:25;;;;;;;7.47;5.65;;;2.40;99.90;;;;;;5042361;28;20021;-30
2023/04/05 08:01:51;;;;;;;6.47;5.40;;;2.40;99.90;;;;;;5047997;28;20410;-31
2023/04/05 08:04:19;;;;;;;5.28;4.78;;;2.50;99.90;;;;;;5042317;28;20461;-30
2023/04/05 08:06:45;;;;;;;5.93;5.07;;;2.60;99.90;;;;;;5044334;28;20039;-30
2023/04/05 08:09:11;;;;;;;5.50;5.00;;;2.70;99.90;;;;;;5045206;28;20033;-30
2023/04/05 08:11:37;;;;;;;7.13;5.00;;;3.00;96.60;;;;;;5043388;28;20044;-31
2023/04/05 08:14:02;;;;;;;6.47;4.95;;;3.20;99.90;;;;;;5040898;28;20454;-31
2023/04/05 08:16:28;;;;;;;10.13;5.75;;;3.20;99.60;;;;;;5046127;28;20104;-30
2023/04/05 08:18:53;;;;;;;8.68;5.38;;;3.40;99.20;;;;;;5046556;28;20025;-30
2023/04/05 08:21:21;;;;;;;7.55;5.63;;;3.40;99.40;;;;;;5046554;28;20024;-31
2023/04/05 08:23:48;;;;;;;6.38;4.32;;;3.40;94.50;;;;;;5041564;28;20401;-31
2023/04/05 08:26:15;;;;;;;7.20;4.78;;;3.30;92.50;;;;;;5047872;28;20029;-30
2023/04/05 08:28:41;;;;;;;7.35;4.93;;;3.40;94.90;;;;;;5046357;28;20079;-30
2023/04/05 08:31:07;;;;;;;6.90;5.50;;;3.60;99.40;;;;;;5044939;28;20390;-30
2023/04/05 08:33:33;;;;;;;9.13;5.47;;;3.80;98.80;;;;;;5044766;28;20116;-30
2023/04/05 08:36:06;;;;;;;5.68;4.95;;;3.90;96.20;;;;;;5059518;28;20060;-30
2023/04/05 08:38:32;;;;;;;6.47;5.20;;;3.80;91.80;;;;;;5046509;28;20039;-31
2023/04/05 08:41:07;;;;;;;5.97;4.57;;;3.90;95.00;;;;;;5054838;28;20041;-30
2023/04/05 08:43:55;;;;;;;6.95;4.32;;;3.90;92.70;;;;;;5065925;28;20147;-30
2023/04/05 08:46:21;;;;;;;4.32;3.92;;;3.80;90.50;;;;;;5057056;28;20025;-30
2023/04/05 08:48:47;;;;;;;6.85;5.03;;;3.90;88.20;;;;;;5043110;28;20033;-30
2023/04/05 08:51:12;;;;;;;6.50;4.88;;;4.00;92.70;;;;;;5044966;28;20064;-30
2023/04/05 08:53:38;;;;;;;4.57;4.15;;;4.10;84.10;;;;;;5043617;28;20075;-30
2023/04/05 08:56:05;;;;;;;4.25;3.85;;;4.00;85.80;;;;;;5043901;28;20037;-30
2023/04/05 08:58:34;;;;;;;4.82;4.22;;;4.10;81.80;;;;;;5050273;28;20422;-30
2023/04/05 09:01:00;;;;;;;6.10;4.85;;;4.20;83.10;;;;;;5039434;28;20111;-30
2023/04/05 09:03:36;;;;;;;4.93;4.05;;;4.30;79.20;;;;;;5041558;28;20656;-30
2023/04/05 09:06:08;;;;;;;6.18;4.55;;;4.30;75.90;;;;;;5045820;28;20040;-30
2023/04/05 09:08:34;;;;;;;7.95;4.88;;;4.40;81.50;;;;;;5041821;28;20076;-30
2023/04/05 09:11:00;;;;;;;5.20;4.25;;;4.40;80.60;;;;;;5037857;28;20057;-30
2023/04/05 09:13:26;;;;;;;5.47;4.45;;;4.50;80.60;;;;;;5046773;28;20036;-30
2023/04/05 09:15:51;;;;;;;6.03;5.20;;;4.80;80.60;;;;;;5040949;28;20047;-30
2023/04/05 09:18:17;;;;;;;6.18;4.70;;;4.70;79.40;;;;;;5042825;28;20029;-30
2023/04/05 09:20:43;;;;;;;6.47;4.75;;;4.80;71.20;;;;;;5049687;28;20136;-30
2023/04/05 09:23:08;;;;;;;5.97;4.50;;;4.90;68.10;;;;;;5052042;28;20205;-30
2023/04/05 09:25:41;;;;;;;4.45;3.60;;;5.00;70.50;;;;;;5039912;28;20560;-30
2023/04/05 09:28:07;;;;;;;6.70;4.35;;;4.90;63.30;;;;;;5039919;28;20047;-31
2023/04/05 09:30:35;;;;;;;5.35;4.47;;;4.60;64.50;;;;;;5047548;28;20060;-31
2023/04/05 09:33:02;;;;;;;4.60;4.20;;;4.50;63.40;;;;;;5045804;28;20021;-30
2023/04/05 09:35:30;;;;;;;4.40;3.90;;;4.70;66.50;;;;;;5049008;28;20509;-31
2023/04/05 09:38:06;;;;;;;4.28;3.85;;;4.80;61.30;;;;;;5046149;28;20486;-30
2023/04/05 09:40:50;;;;;;;4.07;3.67;;;4.90;61.80;;;;;;5041584;28;20036;-30
2023/04/05 09:43:35;;;;;;;2.88;2.33;;;4.80;61.20;;;;;;5040165;28;20033;-30
2023/04/05 09:46:00;;;;;;;3.67;3.03;;;5.00;61.90;;;;;;5048298;28;20040;-30
2023/04/05 09:48:56;;;;;;;6.13;4.57;;;5.10;60.60;;;;;;5041150;28;20103;-30
2023/04/05 09:51:21;;;;;;;5.63;4.40;;;5.10;62.80;;;;;;5044289;28;20037;-30
2023/04/05 09:54:16;;;;;;;5.22;4.32;;;5.30;64.50;;;;;;5044379;28;20033;-30
2023/04/05 09:56:53;;;;;;;6.57;4.47;;;5.50;60.60;;;;;;5041803;28;20505;-30
2023/04/05 09:59:20;;;;;;;8.93;4.57;;;5.60;58.40;;;;;;5047987;28;20047;-30
2023/04/05 10:01:50;;;;;;;4.25;3.72;;;5.80;58.90;;;;;;5046129;28;20115;-31
2023/04/05 10:04:18;;;;;;;5.38;3.83;;;6.00;60.90;;;;;;5049232;28;20032;-30
2023/04/05 10:06:44;;;;;;;6.07;4.65;;;6.30;57.60;;;;;;5073026;28;20766;-30
2023/04/05 10:09:11;;;;;;;5.15;4.65;;;6.10;57.50;;;;;;5046026;28;20032;-31
2023/04/05 10:11:37;;;;;;;4.70;4.30;;;5.80;62.30;;;;;;5045398;28;20060;-30
2023/04/05 10:14:05;;;;;;;6.95;5.30;;;5.70;59.00;;;;;;5053119;28;20034;-30
2023/04/05 10:17:08;;;;;;;6.47;4.53;;;5.30;62.50;;;;;;5048741;28;20044;-30
2023/04/05 10:19:48;;;;;;;5.80;4.50;;;5.00;62.50;;;;;;5044254;28;20085;-30
2023/04/05 10:22:22;;;;;;;5.55;5.05;;;5.00;63.20;;;;;;5038391;28;20063;-30
2023/04/05 10:25:01;;;;;;;6.90;4.50;;;4.80;66.80;;;;;;5051449;28;20144;-30
2023/04/05 10:27:36;;;;;;;7.05;4.85;;;5.10;64.80;;;;;;5048862;28;20032;-31
2023/04/05 10:30:04;;;;;;;6.07;4.90;;;5.80;73.30;;;;;;5051808;28;20100;-31
2023/04/05 10:32:43;;;;;;;5.43;4.65;;;5.90;65.30;;;;;;5046824;28;20175;-31
2023/04/05 10:35:15;;;;;;;5.20;4.70;;;5.90;66.70;;;;;;5049807;28;20101;-30
2023/04/05 10:38:11;;;;;;;5.22;4.70;;;6.10;69.30;;;;;;5047762;28;20017;-31
2023/04/05 10:40:36;;;;;;;4.28;3.85;;;6.10;63.50;;;;;;5044110;28;20025;-31
2023/04/05 10:43:06;;;;;;;5.95;4.20;;;6.00;62.20;;;;;;5044994;28;20041;-30
2023/04/05 10:45:32;;;;;;;5.20;4.20;;;5.50;61.60;;;;;;5051257;28;20031;-30
2023/04/05 10:48:06;;;;;;;7.20;4.80;;;5.20;60.80;;;;;;5048150;28;20029;-31
2023/04/05 10:50:33;;;;;;;4.45;3.92;;;5.30;64.00;;;;;;5046112;28;20052;-31
2023/04/05 10:52:59;;;;;;;6.78;4.72;;;5.60;61.60;;;;;;5048227;28;20113;-30
2023/04/05 10:55:25;;;;;;;6.43;4.65;;;5.90;63.20;;;;;;5061865;28;20033;-31
2023/04/05 10:57:53;;;;;;;5.97;4.30;;;6.10;60.80;;;;;;5041074;28;20074;-31
2023/04/05 11:00:21;;;;;;;4.82;4.07;;;6.20;57.50;;;;;;5050553;28;20502;-30
2023/04/05 11:02:52;;;;;;;5.70;4.57;;;6.30;55.50;;;;;;5047754;28;20441;-30
2023/04/05 11:05:32;;;;;;;7.90;5.00;;;6.40;56.90;;;;;;5044873;28;20079;-30
2023/04/05 11:08:05;;;;;;;6.50;4.55;;;6.40;58.90;;;;;;5040626;28;20522;-31
2023/04/05 11:10:34;;;;;;;5.85;4.70;;;6.40;60.10;;;;;;5047641;28;20035;-29
2023/04/05 11:13:01;;;;;;;6.43;4.45;;;6.50;62.20;;;;;;5044633;28;20037;-30
2023/04/05 11:15:26;;;;;;;5.72;4.60;;;6.60;63.20;;;;;;5046230;28;20029;-30
2023/04/05 11:18:14;;;;;;;5.43;4.80;;;6.70;58.00;;;;;;5048703;28;20033;-29
2023/04/05 11:20:44;;;;;;;5.40;4.80;;;6.50;57.90;;;;;;5043884;28;20035;-30
2023/04/05 11:23:11;;;;;;;6.32;4.43;;;6.50;59.30;;;;;;5046142;28;20279;-30
2023/04/05 11:25:41;;;;;;;4.30;3.80;;;6.40;56.80;;;;;;5044927;28;20632;-30
2023/04/05 11:28:10;;;;;;;4.97;3.90;;;6.50;61.40;;;;;;5046584;28;20781;-29
2023/04/05 11:30:46;;;;;;;5.38;4.15;;;6.80;63.60;;;;;;5043244;28;20130;-30
2023/04/05 11:33:35;;;;;;;4.68;4.15;;;6.80;56.50;;;;;;5046097;28;20031;-29
2023/04/05 11:36:04;;;;;;;5.18;4.50;;;6.70;53.80;;;;;;5044812;28;20186;-29
2023/04/05 11:38:29;;;;;;;5.80;4.43;;;6.80;55.70;;;;;;5041605;28;20029;-30
2023/04/05 11:41:16;;;;;;;5.22;4.75;;;6.90;58.70;;;;;;5047128;28;20520;-31
2023/04/05 11:43:43;;;;;;;4.50;3.83;;;6.70;57.10;;;;;;5045022;28;20110;-29
2023/04/05 11:46:09;;;;;;;4.28;3.13;;;6.50;55.10;;;;;;5048337;28;20045;-29
2023/04/05 11:48:35;;;;;;;3.85;3.45;;;6.70;56.00;;;;;;5049667;28;20491;-29
2023/04/05 11:51:11;;;;;;;4.43;3.70;;;7.10;53.50;;;;;;5038768;28;20046;-30
2023/04/05 11:53:37;;;;;;;5.72;3.78;;;7.30;53.10;;;;;;5047725;28;20398;-29
2023/04/05 11:56:12;;;;;;;5.32;4.10;;;7.40;52.80;;;;;;5040821;28;20028;-29
2023/04/05 11:58:38;;;;;;;5.07;4.20;;;7.20;53.90;;;;;;5043219;28;20128;-30
2023/04/05 12:01:08;;;;;;;6.60;4.40;;;6.90;53.30;;;;;;5046106;28;20090;-30
2023/04/05 12:03:35;;;;;;;6.07;4.78;;;7.00;60.90;;;;;;5044546;28;20043;-31
2023/04/05 12:06:03;;;;;;;6.63;4.38;;;6.80;57.90;;;;;;5045484;28;20476;-30
2023/04/05 12:08:48;;;;;;;5.83;5.00;;;6.70;57.80;;;;;;5047446;28;20509;-30
2023/04/05 12:11:15;;;;;;;5.75;4.72;;;6.50;57.80;;;;;;5045462;28;20025;-29
2023/04/05 12:13:41;;;;;;;4.68;4.20;;;6.50;56.00;;;;;;5045210;28;20549;-29
2023/04/05 12:16:08;;;;;;;5.10;4.35;;;6.10;53.60;;;;;;5046512;28;20020;-29
2023/04/05 12:18:37;;;;;;;5.18;3.88;;;5.90;53.20;;;;;;5042910;28;20017;-30
2023/04/05 12:21:12;;;;;;;5.13;4.13;;;5.80;54.60;;;;;;5043074;28;20592;-29
2023/04/05 12:23:38;;;;;;;4.38;3.80;;;6.10;53.60;;;;;;5039738;28;20445;-31
2023/04/05 12:26:06;;;;;;;5.28;3.88;;;6.20;51.90;;;;;;5047280;28;20025;-29
2023/04/05 12:28:54;;;;;;;5.38;4.05;;;6.60;53.70;;;;;;5043390;28;20029;-29
2023/04/05 12:31:44;;;;;;;5.45;4.13;;;6.70;49.10;;;;;;5047600;28;20462;-29
2023/04/05 12:34:12;;;;;;;6.47;4.50;;;6.80;55.50;;;;;;5064750;28;20028;-30
2023/04/05 12:36:38;;;;;;;4.90;3.85;;;7.20;57.10;;;;;;5046194;28;20031;-30
2023/04/05 12:39:08;;;;;;;5.47;3.90;;;7.00;57.10;;;;;;5052158;28;20036;-30
2023/04/05 12:41:35;;;;;;;6.57;3.70;;;6.90;50.90;;;;;;5043223;28;20033;-31
2023/04/05 12:44:05;;;;;;;5.65;4.45;;;7.00;52.80;;;;;;5075487;28;20835;-30
2023/04/05 12:46:49;;;;;;;5.28;3.70;;;7.20;52.60;;;;;;5043148;28;20031;-30
2023/04/05 12:49:16;;;;;;;4.75;3.88;;;6.90;48.40;;;;;;5057322;28;20060;-29
2023/04/05 12:51:44;;;;;;;5.97;3.97;;;7.20;52.20;;;;;;5047484;28;20329;-29
2023/04/05 12:54:14;;;;;;;4.63;4.18;;;7.70;51.40;;;;;;5046042;28;20027;-29
2023/04/05 12:56:41;;;;;;;4.60;3.95;;;7.30;53.30;;;;;;5047123;28;20112;-29
2023/04/05 12:59:07;;;;;;;4.68;3.70;;;7.40;53.70;;;;;;5040748;28;20486;-32